createdAt,value
2022-08-26T00:02:29.945Z,1.88
2022-08-26T00:05:34.928Z,1.60
2022-08-26T00:08:49.887Z,1.38
2022-08-26T00:11:55.876Z,1.85
2022-08-26T00:15:00.393Z,1.60
2022-08-26T00:18:16.947Z,1.30
2022-08-26T00:21:27.451Z,1.20
2022-08-26T00:24:32.381Z,1.10
2022-08-26T00:27:37.555Z,1.20
2022-08-26T00:30:43.351Z,1.67
2022-08-26T00:33:50.403Z,0.98
2022-08-26T00:36:55.416Z,1.50
2022-08-26T00:40:00.997Z,1.13
2022-08-26T00:43:10.147Z,1.13
2022-08-26T00:46:30.169Z,1.40
2022-08-26T00:49:40.543Z,1.40
2022-08-26T00:52:47.474Z,1.20
2022-08-26T00:56:04.958Z,1.17
2022-08-26T00:59:13.103Z,1.42
2022-08-26T01:02:21.158Z,1.45
2022-08-26T01:05:26.466Z,2.13
2022-08-26T01:08:32.184Z,4.50
2022-08-26T01:11:37.565Z,1.27
2022-08-26T01:14:42.445Z,2.03
2022-08-26T01:17:52.034Z,2.10
2022-08-26T01:21:15.858Z,1.52
2022-08-26T01:24:22.400Z,1.57
2022-08-26T01:27:32.543Z,1.20
2022-08-26T01:30:41.741Z,1.50
2022-08-26T01:34:09.058Z,1.27
2022-08-26T01:37:18.178Z,1.50
2022-08-26T01:40:27.711Z,1.00
2022-08-26T01:43:35.300Z,1.40
2022-08-26T01:46:39.960Z,1.10
2022-08-26T01:49:47.712Z,1.17
2022-08-26T01:52:56.390Z,1.25
2022-08-26T01:56:03.343Z,1.60
2022-08-26T01:59:13.213Z,1.10
2022-08-26T02:02:18.955Z,1.08
2022-08-26T02:05:23.346Z,1.40
2022-08-26T02:08:42.684Z,2.08
2022-08-26T02:11:48.614Z,1.10
2022-08-26T02:14:59.120Z,1.20
2022-08-26T02:18:06.456Z,1.00
2022-08-26T02:21:14.349Z,0.82
2022-08-26T02:24:23.342Z,1.27
2022-08-26T02:27:34.786Z,1.88
2022-08-26T02:30:41.378Z,1.20
2022-08-26T02:33:46.089Z,1.00
2022-08-26T02:36:51.059Z,1.10
2022-08-26T02:39:55.685Z,1.17
2022-08-26T02:43:01.697Z,0.98
2022-08-26T02:49:11.786Z,0.80
2022-08-26T02:52:16.580Z,1.20
2022-08-26T02:55:21.283Z,1.80
2022-08-26T02:58:29.355Z,1.10
2022-08-26T03:01:37.030Z,1.00
2022-08-26T03:04:58.033Z,1.15
2022-08-26T03:08:07.886Z,0.80
2022-08-26T03:11:15.049Z,1.20
2022-08-26T03:14:19.999Z,0.90
2022-08-26T03:17:25.307Z,1.25
2022-08-26T03:20:31.812Z,0.65
2022-08-26T03:23:36.421Z,0.93
2022-08-26T03:26:52.425Z,0.90
2022-08-26T03:30:16.533Z,1.00
2022-08-26T03:33:21.119Z,1.08
2022-08-26T03:36:25.617Z,1.25
2022-08-26T03:39:31.496Z,1.02
2022-08-26T03:42:41.672Z,0.93
2022-08-26T03:45:49.956Z,0.93
2022-08-26T03:48:56.423Z,1.13
2022-08-26T03:52:01.052Z,0.90
2022-08-26T03:55:09.894Z,0.65
2022-08-26T03:58:14.801Z,0.88
2022-08-26T04:01:19.879Z,0.88
2022-08-26T04:07:29.562Z,0.68
2022-08-26T04:10:39.301Z,0.95
2022-08-26T04:13:44.317Z,0.90
2022-08-26T04:16:49.701Z,0.90
2022-08-26T04:19:55.332Z,1.00
2022-08-26T04:23:00.378Z,1.00
2022-08-26T04:26:05.111Z,1.10
2022-08-26T04:29:13.547Z,1.13
2022-08-26T04:32:18.494Z,1.30
2022-08-26T04:35:26.045Z,1.00
2022-08-26T04:38:31.310Z,1.13
2022-08-26T04:44:42.021Z,1.30
2022-08-26T04:47:47.669Z,1.10
2022-08-26T04:50:52.742Z,1.30
2022-08-26T04:57:03.446Z,1.30
2022-08-26T05:00:14.401Z,1.73
2022-08-26T05:03:20.595Z,0.93
2022-08-26T05:06:25.532Z,1.52
2022-08-26T05:09:30.495Z,0.85
2022-08-26T05:12:35.545Z,1.42
2022-08-26T05:15:40.345Z,2.25
2022-08-26T05:18:46.567Z,0.77
2022-08-26T05:24:56.014Z,0.98
2022-08-26T05:28:00.887Z,1.30
2022-08-26T05:31:14.788Z,0.98
2022-08-26T05:34:21.861Z,0.98
2022-08-26T05:37:27.790Z,0.90
2022-08-26T05:40:37.674Z,0.88
2022-08-26T05:43:42.821Z,1.17
2022-08-26T05:49:52.096Z,3.97
2022-08-26T05:52:57.162Z,1.92
2022-08-26T05:56:01.789Z,1.85
2022-08-26T05:59:06.815Z,1.70
2022-08-26T06:02:18.936Z,1.23
2022-08-26T06:05:23.900Z,1.10
2022-08-26T06:08:29.303Z,1.50
2022-08-26T06:11:34.739Z,0.65
2022-08-26T06:14:39.225Z,0.60
2022-08-26T06:17:43.994Z,1.08
2022-08-26T06:20:57.999Z,1.90
2022-08-26T06:24:33.480Z,2.30
2022-08-26T06:27:38.506Z,2.25
2022-08-26T06:30:43.629Z,2.15
2022-08-26T06:33:48.388Z,1.20
2022-08-26T06:36:54.495Z,2.55
2022-08-26T06:39:59.385Z,1.20
2022-08-26T06:43:04.128Z,0.90
2022-08-26T06:46:11.960Z,1.70
2022-08-26T06:49:17.396Z,1.65
2022-08-26T06:52:24.582Z,0.80
2022-08-26T06:55:29.670Z,1.42
2022-08-26T06:58:36.195Z,1.00
2022-08-26T07:01:47.013Z,0.82
2022-08-26T07:04:54.394Z,0.95
2022-08-26T07:08:01.610Z,0.85
2022-08-26T07:11:08.550Z,1.45
2022-08-26T07:14:14.005Z,1.42
2022-08-26T07:20:25.091Z,1.88
2022-08-26T07:23:29.620Z,0.65
2022-08-26T07:26:34.220Z,0.93
2022-08-26T07:29:40.779Z,0.70
2022-08-26T07:32:45.605Z,1.23
2022-08-26T07:35:50.231Z,1.20
2022-08-26T07:38:55.897Z,0.90
2022-08-26T07:45:12.762Z,0.70
2022-08-26T07:48:18.840Z,0.80
2022-08-26T07:51:26.972Z,0.80
2022-08-26T07:54:32.596Z,0.75
2022-08-26T07:57:40.373Z,0.82
2022-08-26T08:00:49.387Z,0.80
2022-08-26T08:03:56.668Z,1.70
2022-08-26T08:07:02.227Z,2.33
2022-08-26T08:10:11.593Z,1.88
2022-08-26T08:13:17.233Z,2.10
2022-08-26T08:16:23.687Z,1.20
2022-08-26T08:19:36.713Z,1.30
2022-08-26T08:22:43.450Z,0.50
2022-08-26T08:25:49.963Z,0.80
2022-08-26T08:28:57.538Z,0.45
2022-08-26T08:32:02.206Z,0.73
2022-08-26T08:35:10.836Z,0.80
2022-08-26T08:38:15.861Z,0.60
2022-08-26T08:42:23.705Z,0.60
2022-08-26T08:46:07.178Z,0.60
2022-08-26T08:49:14.920Z,1.23
2022-08-26T08:52:28.580Z,0.90
2022-08-26T08:55:45.405Z,0.82
2022-08-26T08:58:58.137Z,1.15
2022-08-26T09:02:12.891Z,0.90
2022-08-26T09:05:34.956Z,2.60
2022-08-26T09:08:42.070Z,0.90
2022-08-26T09:11:47.547Z,1.40
2022-08-26T09:14:57.600Z,1.73
2022-08-26T09:18:19.667Z,1.63
2022-08-26T09:21:26.206Z,1.63
2022-08-26T09:24:41.909Z,2.72
2022-08-26T09:27:55.220Z,2.28
2022-08-26T09:31:12.469Z,6.43
2022-08-26T09:34:26.680Z,11.77
2022-08-26T09:37:43.914Z,6.25
2022-08-26T09:41:20.824Z,5.00
2022-08-26T09:44:25.740Z,5.50
2022-08-26T09:47:40.976Z,6.83
2022-08-26T09:50:59.056Z,7.95
2022-08-26T09:54:05.761Z,2.00
2022-08-26T09:57:28.446Z,1.95
2022-08-26T10:00:54.707Z,2.10
2022-08-26T10:04:13.217Z,2.03
2022-08-26T10:07:40.106Z,3.05
2022-08-26T10:10:46.766Z,4.43
2022-08-26T10:14:05.757Z,3.03
2022-08-26T10:17:36.972Z,4.28
2022-08-26T10:20:58.909Z,4.13
2022-08-26T10:24:05.949Z,4.78
2022-08-26T10:27:31.995Z,5.90
2022-08-26T10:33:47.678Z,4.82
2022-08-26T10:37:13.604Z,3.50
2022-08-26T10:40:31.980Z,4.60
2022-08-26T10:44:00.240Z,3.65
2022-08-26T10:47:16.751Z,7.30
2022-08-26T10:50:25.849Z,7.30
2022-08-26T10:53:51.465Z,3.67
2022-08-26T10:57:18.472Z,4.13
2022-08-26T11:01:16.150Z,3.42
2022-08-26T11:04:42.371Z,2.30
2022-08-26T11:07:53.622Z,4.55
2022-08-26T11:11:01.301Z,5.40
2022-08-26T11:14:08.404Z,5.95
2022-08-26T11:17:13.069Z,3.70
2022-08-26T11:20:42.587Z,2.10
2022-08-26T11:23:50.524Z,1.73
2022-08-26T11:26:56.744Z,2.08
2022-08-26T11:30:10.073Z,2.30
2022-08-26T11:33:51.816Z,1.90
2022-08-26T11:36:58.331Z,2.10
2022-08-26T11:40:05.764Z,1.33
2022-08-26T11:43:19.642Z,1.77
2022-08-26T11:46:36.591Z,2.17
2022-08-26T11:49:41.813Z,1.67
2022-08-26T11:52:56.448Z,1.55
2022-08-26T11:56:07.186Z,1.10
2022-08-26T11:59:16.382Z,1.90
2022-08-26T12:02:22.018Z,1.33
2022-08-26T12:05:38.205Z,1.20
2022-08-26T12:08:46.155Z,1.33
2022-08-26T12:11:51.182Z,1.10
2022-08-26T12:15:16.515Z,0.98
2022-08-26T12:18:29.590Z,1.10
2022-08-26T12:21:35.594Z,1.02
2022-08-26T12:24:49.464Z,1.20
2022-08-26T12:27:54.210Z,1.13
2022-08-26T12:31:07.882Z,0.93
2022-08-26T12:34:18.760Z,1.00
2022-08-26T12:37:23.832Z,1.15
2022-08-26T12:40:46.303Z,1.00
2022-08-26T12:43:50.981Z,1.30
2022-08-26T12:47:01.942Z,1.05
2022-08-26T12:50:35.118Z,1.38
2022-08-26T12:53:44.555Z,0.95
2022-08-26T12:56:49.280Z,1.00
2022-08-26T13:00:28.707Z,1.27
2022-08-26T13:03:36.133Z,1.10
2022-08-26T13:06:41.248Z,1.35
2022-08-26T13:09:45.636Z,1.27
2022-08-26T13:12:50.284Z,0.90
2022-08-26T13:15:55.047Z,1.17
2022-08-26T13:19:05.851Z,1.05
2022-08-26T13:22:16.116Z,1.50
2022-08-26T13:25:20.653Z,1.58
2022-08-26T13:28:25.128Z,1.00
2022-08-26T13:31:32.442Z,0.88
2022-08-26T13:34:39.469Z,0.93
2022-08-26T13:37:43.930Z,0.95
2022-08-26T13:40:51.020Z,0.77
2022-08-26T13:43:55.631Z,1.00
2022-08-26T13:47:00.568Z,0.70
2022-08-26T13:50:06.789Z,1.02
2022-08-26T13:53:11.613Z,1.13
2022-08-26T13:56:16.130Z,1.40
2022-08-26T13:59:20.759Z,1.20
2022-08-26T14:02:25.562Z,10.77
2022-08-26T14:05:30.828Z,7.60
2022-08-26T14:08:35.613Z,3.80
2022-08-26T14:11:54.574Z,4.93
2022-08-26T14:14:59.528Z,2.40
2022-08-26T14:18:07.756Z,5.63
2022-08-26T14:21:14.786Z,5.88
2022-08-26T14:24:19.423Z,4.05
2022-08-26T14:27:24.175Z,4.45
2022-08-26T14:30:30.040Z,3.63
2022-08-26T14:33:38.924Z,3.38
2022-08-26T14:36:44.311Z,3.10
2022-08-26T14:39:49.501Z,1.90
2022-08-26T14:42:56.044Z,2.30
2022-08-26T14:46:03.516Z,1.10
2022-08-26T14:49:10.741Z,0.80
2022-08-26T14:52:15.651Z,0.93
2022-08-26T14:55:20.388Z,0.93
2022-08-26T14:58:25.238Z,0.60
2022-08-26T15:01:35.885Z,0.90
2022-08-26T15:04:41.421Z,1.42
2022-08-26T15:10:50.562Z,0.90
2022-08-26T15:13:55.352Z,1.20
2022-08-26T15:17:00.052Z,1.23
2022-08-26T15:20:08.708Z,1.20
2022-08-26T15:23:13.280Z,1.30
2022-08-26T15:26:18.826Z,1.13
2022-08-26T15:32:30.349Z,1.45
2022-08-26T15:38:45.390Z,1.60
2022-08-26T15:41:50.118Z,1.85
2022-08-26T15:44:54.852Z,1.80
2022-08-26T15:48:01.579Z,1.70
2022-08-26T15:51:12.617Z,2.00
2022-08-26T15:54:18.671Z,1.77
2022-08-26T15:57:23.350Z,3.88
2022-08-26T16:00:28.271Z,1.55
2022-08-26T16:03:32.819Z,1.60
2022-08-26T16:06:40.002Z,1.38
2022-08-26T16:09:44.688Z,1.50
2022-08-26T16:12:51.132Z,1.75
2022-08-26T16:15:55.775Z,1.67
2022-08-26T16:19:05.551Z,1.87
2022-08-26T16:22:11.969Z,1.98
2022-08-26T16:25:16.709Z,2.43
2022-08-26T16:28:26.243Z,1.70
2022-08-26T16:31:31.239Z,2.30
2022-08-26T16:34:36.853Z,2.22
2022-08-26T16:40:46.217Z,1.90
2022-08-26T16:43:50.899Z,2.53
2022-08-26T16:46:58.757Z,2.07
2022-08-26T16:50:05.001Z,2.60
2022-08-26T16:56:23.995Z,2.28
2022-08-26T16:59:38.403Z,2.50
2022-08-26T17:02:43.021Z,2.45
2022-08-26T17:05:47.719Z,2.00
2022-08-26T17:08:53.352Z,2.03
2022-08-26T17:11:57.995Z,2.20
2022-08-26T17:15:02.491Z,1.90
2022-08-26T17:18:08.879Z,2.00
2022-08-26T17:21:15.303Z,1.92
2022-08-26T17:24:20.091Z,2.10
2022-08-26T17:27:24.787Z,1.90
2022-08-26T17:30:30.918Z,2.20
2022-08-26T17:33:35.747Z,1.80
2022-08-26T17:36:42.788Z,2.03
2022-08-26T17:39:47.332Z,2.00
2022-08-26T17:42:53.267Z,2.70
2022-08-26T17:46:04.675Z,2.50
2022-08-26T17:49:12.779Z,1.90
2022-08-26T17:52:17.727Z,2.55
2022-08-26T17:55:22.632Z,2.33
2022-08-26T17:58:27.523Z,2.47
2022-08-26T18:01:33.867Z,1.92
2022-08-26T18:04:38.544Z,1.85
2022-08-26T18:07:43.987Z,1.80
2022-08-26T18:13:54.108Z,2.25
2022-08-26T18:16:58.929Z,1.77
2022-08-26T18:20:03.942Z,2.13
2022-08-26T18:23:09.096Z,2.85
2022-08-26T18:26:32.536Z,2.70
2022-08-26T18:29:37.270Z,2.42
2022-08-26T18:32:51.515Z,2.10
2022-08-26T18:35:56.821Z,2.38
2022-08-26T18:39:02.098Z,2.60
2022-08-26T18:42:07.245Z,2.03
2022-08-26T18:45:15.959Z,2.85
2022-08-26T18:48:20.861Z,2.60
2022-08-26T18:51:30.447Z,2.15
2022-08-26T18:54:35.191Z,2.42
2022-08-26T18:57:40.206Z,2.08
2022-08-26T19:00:44.755Z,2.33
2022-08-26T19:03:49.344Z,2.10
2022-08-26T19:06:54.792Z,2.33
2022-08-26T19:09:59.440Z,2.15
2022-08-26T19:13:04.247Z,3.03
2022-08-26T19:16:25.147Z,2.30
2022-08-26T19:19:30.343Z,1.58
2022-08-26T19:22:34.989Z,1.20
2022-08-26T19:25:53.428Z,1.30
2022-08-26T19:28:58.276Z,1.23
2022-08-26T19:32:04.444Z,3.33
2022-08-26T19:35:10.149Z,1.17
2022-08-26T19:38:16.409Z,1.27
2022-08-26T19:41:29.485Z,1.40
2022-08-26T19:45:00.512Z,1.02
2022-08-26T19:48:06.439Z,1.30
2022-08-26T19:54:18.540Z,1.30
2022-08-26T19:57:23.054Z,1.90
2022-08-26T20:00:29.844Z,1.50
2022-08-26T20:03:35.327Z,1.40
2022-08-26T20:09:44.889Z,1.50
2022-08-26T20:12:52.758Z,1.45
2022-08-26T20:15:57.585Z,1.70
2022-08-26T20:19:21.176Z,1.23
2022-08-26T20:22:26.602Z,1.70
2022-08-26T20:25:33.314Z,1.65
2022-08-26T20:28:38.130Z,1.55
2022-08-26T20:31:44.886Z,2.97
2022-08-26T20:34:50.338Z,2.20
2022-08-26T20:37:55.050Z,2.40
2022-08-26T20:41:00.042Z,2.72
2022-08-26T20:44:05.845Z,2.60
2022-08-26T20:50:15.319Z,2.40
2022-08-26T20:53:19.920Z,2.57
2022-08-26T20:56:29.061Z,3.38
2022-08-26T20:59:34.374Z,2.80
2022-08-26T21:02:39.266Z,3.00
2022-08-26T21:05:44.202Z,2.63
2022-08-26T21:08:49.309Z,1.85
2022-08-26T21:11:55.710Z,2.08
2022-08-26T21:15:01.477Z,1.60
2022-08-26T21:18:07.221Z,1.83
2022-08-26T21:21:12.701Z,1.40
2022-08-26T21:24:17.977Z,1.58
2022-08-26T21:27:26.288Z,1.63
2022-08-26T21:30:30.902Z,1.90
2022-08-26T21:33:36.253Z,1.77
2022-08-26T21:36:40.662Z,1.67
2022-08-26T21:39:45.583Z,1.80
2022-08-26T21:42:50.466Z,3.47
2022-08-26T21:45:57.549Z,2.80
2022-08-26T21:49:04.579Z,3.95
2022-08-26T21:52:09.283Z,4.30
2022-08-26T21:55:13.955Z,3.25
2022-08-26T21:58:18.490Z,3.10
2022-08-26T22:01:26.064Z,3.40
2022-08-26T22:04:30.669Z,2.67
2022-08-26T22:07:35.505Z,3.30
2022-08-26T22:10:43.236Z,2.78
2022-08-26T22:13:49.749Z,2.05
2022-08-26T22:16:55.603Z,2.00
2022-08-26T22:20:00.521Z,1.27
2022-08-26T22:23:06.410Z,1.60
2022-08-26T22:29:16.787Z,1.20
2022-08-26T22:32:21.427Z,1.40
2022-08-26T22:35:29.312Z,1.50
2022-08-26T22:38:35.316Z,1.55
2022-08-26T22:41:40.965Z,1.40
2022-08-26T22:47:50.172Z,2.05
2022-08-26T22:51:00.197Z,1.58
2022-08-26T22:54:05.827Z,2.15
2022-08-26T22:57:10.372Z,1.85
2022-08-26T23:00:15.820Z,2.20
2022-08-26T23:03:20.733Z,1.75
2022-08-26T23:06:27.230Z,2.30
2022-08-26T23:09:32.350Z,1.75
2022-08-26T23:12:38.634Z,1.52
2022-08-26T23:15:45.545Z,3.22
2022-08-26T23:18:51.254Z,2.65
2022-08-26T23:21:57.189Z,1.20
2022-08-26T23:25:01.627Z,3.40
2022-08-26T23:28:12.936Z,1.85
2022-08-26T23:31:17.203Z,1.15
2022-08-26T23:34:40.448Z,1.83
2022-08-26T23:37:48.855Z,2.75
2022-08-26T23:40:53.851Z,4.68
2022-08-26T23:44:03.274Z,3.38
2022-08-26T23:47:09.098Z,2.53
2022-08-26T23:53:21.915Z,2.30
2022-08-26T23:56:26.951Z,2.50
2022-08-26T23:59:31.563Z,5.30
